Bei Facebook empfehlenBei Twitter postenGoogle plusPinterest

Das Wetter im Erzgebirge am 11.06.2017

Wetter und Klima am 11.06.2017 Holzhau im Erzgebirge (630m ü.NN)
Letzte gemessene Temperatur und Uhrzeit der Messung23:45:00 Uhr19.20 °C
Temperatur (Maximum / Höchstwert) und Uhrzeit der Messung14:00:00 Uhr27.00 °C
Temperatur (Minimum / Tiefstwert) und Uhrzeit der Messung05:45:007.30 °C
Errechneter Absolutwert der Temperaturschwankungen zwischen Tmin und Tmax des Tages19.70 K
Errechnete Tagesmitteltemperatur18.68750 °C
Gesamt - Niederschlag des Tages (in flüssiger Form)0.00 Liter / m²
Luftdruck (Maximum / Höchstwert) und Zeitpunkt der Messung00:30:00 Uhr1018.90 hPa
Luftdruck (Minimum / Tiefstwert) und Zeitpunkt der Messung23:45:00 Uhr1011.70 hPa
Errechneter Absolutwert der Luftdruckschwankungen des Tages7.20 hPa
Höchste gemessene Windgeschwindigkeit und Uhrzeit der Messung09:00:00 Uhr34.92 km/h
Errechnete Windhäufigkeit in Relation zu den Messwerten des Tages11.45833 %
Niedrigste Windkühle (Windchill) und Zeitpunkt der Messung05:45:00 Uhr7.30 °C
Taupunkt (Maximum / Höchstwert) und Uhrzeit der Messung14:45:00 Uhr13.30 °C
Taupunkt (Minimum / Tiefstwert) und Uhrzeit der Messung05:45:005.40 °C
Anzahl der automatisch eingelesenen Messwerte 96

Detaillierte Wetter- und Klima- Messwerte für den 11.06.2017 in Holzhau im Erzgebirge (630m ü.NN)
ZeitTemperaturLuftdruckRel. LuftfeuchteWindWindrichtungWindchillTaupunktNiederschlag l/m²
23:45:0019.20 °C1011.70 hPa56.00 %10.20 °C 
23:30:0019.10 °C1011.80 hPa56.00 %10.10 °C 
23:15:0019.10 °C1012.10 hPa56.00 %10.10 °C 
23:00:0019.10 °C1012.40 hPa56.00 %10.10 °C 
22:45:0018.80 °C1012.40 hPa58.00 %10.40 °C 
22:30:0018.80 °C1012.70 hPa58.00 %10.40 °C 
22:15:0018.70 °C1012.60 hPa59.00 %10.50 °C 
22:00:0018.60 °C1012.90 hPa59.00 %10.40 °C 
21:45:0018.60 °C1012.90 hPa59.00 %10.40 °C 
21:30:0018.80 °C1013.10 hPa58.00 %10.40 °C 
21:15:0019.20 °C1012.90 hPa56.00 %10.20 °C 
21:00:0020.10 °C1013.00 hPa53.00 %10.20 °C 
20:45:0020.90 °C1013.00 hPa52.00 %10.70 °C 
20:30:0021.80 °C1013.00 hPa50.00 %10.90 °C 
20:15:0022.30 °C1013.10 hPa49.00 %11.10 °C 
20:00:0022.80 °C1013.30 hPa47.00 %10.90 °C 
19:45:0023.40 °C1013.30 hPa47.00 %11.50 °C 
19:30:0023.80 °C1013.60 hPa46.00 %3.96 km/hS23.80 °C11.50 °C 
19:15:0024.10 °C1013.80 hPa45.00 %11.40 °C 
19:00:0024.60 °C1014.00 hPa44.00 %11.50 °C 
18:45:0024.90 °C1014.30 hPa44.00 %11.80 °C 
18:30:0025.10 °C1014.40 hPa44.00 %12.00 °C 
18:15:0025.10 °C1014.60 hPa43.00 %11.60 °C 
18:00:0025.30 °C1014.80 hPa43.00 %12.96 km/hSSO25.30 °C11.80 °C 
17:45:0025.60 °C1014.90 hPa42.00 %11.70 °C 
17:30:0025.60 °C1015.10 hPa41.00 %11.40 °C 
17:15:0025.80 °C1015.20 hPa40.00 %11.20 °C 
17:00:0026.20 °C1015.40 hPa40.00 %11.50 °C 
16:45:0026.30 °C1015.50 hPa41.00 %12.00 °C 
16:30:0026.40 °C1015.70 hPa42.00 %12.50 °C 
16:15:0026.10 °C1015.80 hPa42.00 %12.20 °C 
16:00:0026.20 °C1015.80 hPa43.00 %29.88 km/hSW28.00 °C12.60 °C 
15:45:0025.90 °C1016.00 hPa43.00 %12.40 °C 
15:30:0025.90 °C1016.20 hPa44.00 %12.70 °C 
15:15:0025.90 °C1016.20 hPa44.00 %16.92 km/hSW25.90 °C12.70 °C 
15:00:0025.80 °C1016.10 hPa45.00 %13.00 °C 
14:45:0026.60 °C1016.50 hPa44.00 %12.96 km/hWSW26.60 °C13.30 °C 
14:30:0026.40 °C1016.60 hPa44.00 %13.20 °C 
14:15:0026.20 °C1016.70 hPa45.00 %13.30 °C 
14:00:0027.00 °C1016.70 hPa42.00 %13.00 °C 
13:45:0026.10 °C1016.80 hPa40.00 %11.50 °C 
13:30:0026.20 °C1017.00 hPa38.00 %10.80 °C 
13:15:0025.80 °C1017.10 hPa38.00 %10.40 °C 
13:00:0025.60 °C1017.20 hPa38.00 %20.88 km/hSW27.40 °C10.20 °C 
12:45:0025.60 °C1017.60 hPa39.00 %10.60 °C 
12:30:0024.90 °C1017.60 hPa40.00 %10.40 °C 
12:15:0024.60 °C1017.80 hPa41.00 %10.50 °C 
12:00:0024.50 °C1017.80 hPa39.00 %27.36 km/hSSW26.10 °C9.60 °C 
11:45:0024.30 °C1017.90 hPa40.00 %9.80 °C 
11:30:0023.90 °C1017.90 hPa42.00 %10.20 °C 
11:15:0023.60 °C1018.10 hPa41.00 %9.60 °C 
11:00:0023.10 °C1018.00 hPa43.00 %9.80 °C 
10:45:0022.80 °C1018.40 hPa45.00 %10.30 °C 
10:30:0022.40 °C1018.30 hPa46.00 %10.20 °C 
10:15:0021.90 °C1018.30 hPa47.00 %10.10 °C 
10:00:0021.60 °C1018.30 hPa50.00 %10.70 °C 
09:45:0021.10 °C1018.20 hPa52.00 %10.90 °C 
09:30:0020.80 °C1018.40 hPa53.00 %10.90 °C 
09:15:0020.60 °C1018.20 hPa54.00 %11.00 °C 
09:00:0020.40 °C1018.30 hPa56.00 %34.92 km/hNW21.10 °C11.30 °C 
08:45:0020.30 °C1018.30 hPa56.00 %12.96 km/hWNW20.30 °C11.20 °C 
08:30:0020.50 °C1018.30 hPa57.00 %11.70 °C 
08:15:0020.60 °C1018.00 hPa60.00 %33.84 km/hN21.30 °C12.60 °C 
08:00:0019.90 °C1018.10 hPa64.00 %12.90 °C 
07:45:0018.80 °C1018.00 hPa68.00 %12.80 °C 
07:30:0016.90 °C1018.10 hPa73.00 %12.00 °C 
07:15:0013.90 °C1018.30 hPa84.00 %11.20 °C 
07:00:009.60 °C1018.20 hPa89.00 %7.90 °C 
06:45:008.60 °C1018.10 hPa89.00 %6.90 °C 
06:30:008.00 °C1018.30 hPa89.00 %6.30 °C 
06:15:007.80 °C1018.40 hPa89.00 %6.10 °C 
06:00:007.40 °C1018.30 hPa88.00 %5.50 °C 
05:45:007.30 °C1018.30 hPa88.00 %5.40 °C 
05:30:007.30 °C1018.30 hPa88.00 %5.40 °C 
05:15:007.40 °C1018.30 hPa87.00 %5.40 °C 
05:00:007.60 °C1018.30 hPa87.00 %5.60 °C 
04:45:007.80 °C1018.30 hPa86.00 %5.60 °C 
04:30:007.90 °C1018.10 hPa87.00 %5.90 °C 
04:15:008.10 °C1018.10 hPa85.00 %5.70 °C 
04:00:008.40 °C1018.30 hPa85.00 %6.00 °C 
03:45:008.90 °C1018.30 hPa85.00 %6.50 °C 
03:30:009.00 °C1018.20 hPa84.00 %6.40 °C 
03:15:009.10 °C1018.40 hPa85.00 %6.70 °C 
03:00:009.10 °C1018.40 hPa84.00 %6.50 °C 
02:45:009.30 °C1018.40 hPa84.00 %6.48 km/hSSO9.30 °C6.70 °C 
02:30:009.50 °C1018.40 hPa84.00 %6.90 °C 
02:15:009.90 °C1018.60 hPa83.00 %7.20 °C 
02:00:009.90 °C1018.70 hPa82.00 %7.00 °C 
01:45:0010.10 °C1018.60 hPa82.00 %7.20 °C 
01:30:0010.40 °C1018.50 hPa82.00 %7.50 °C 
01:15:0010.40 °C1018.50 hPa83.00 %7.60 °C 
01:00:0010.20 °C1018.70 hPa82.00 %7.30 °C 
00:45:0010.40 °C1018.70 hPa80.00 %7.10 °C 
00:30:0010.90 °C1018.90 hPa79.00 %7.40 °C 
00:15:0011.30 °C1018.70 hPa79.00 %7.80 °C 
00:00:0011.60 °C1018.60 hPa78.00 %7.90 °C 

Permanenter Link zu dieser Seite: Wetter im Erzgebirge am 11.06.2017
Performance-Info: Die Erstellung der Seite / Statistik(en) / Tabelle(n) erforderte 5 Datenbankserver-Abfrage(n) und dauerte 69 Millisekunden. (Dieser Messwert ist von der Gesamt-Auslastung des Servers abhängig.)
Erzgebirge - Wetter | Erzgebirge - Wetter (Mobilgeräte) | Komplette Klimadatenbank